Time;durP1;ratioP1;P1;durP2;ratioP2;P2;SDS_P1;SDS_P2;PMS_P1;PMS_P2;Temp;Humidity;BMP_temperature;BMP_pressure;BME280_temperature;BME280_humidity;BME280_pressure;Samples;Min_cycle;Max_cycle;Signal;HPM_P1;HPM_P2
2022/08/20 00:02:21;;;;;;;10.48;7.55;;;;;;;26.64;53.81;99567.00;5131677;27;20517;-28
2022/08/20 00:04:47;;;;;;;12.80;7.68;;;;;;;26.70;53.84;99571.13;5131795;27;20516;-35
2022/08/20 00:07:13;;;;;;;11.80;8.10;;;;;;;26.66;53.99;99581.16;5131488;27;20027;-27
2022/08/20 00:09:40;;;;;;;13.55;7.97;;;;;;;26.38;54.58;99564.53;5130643;27;20053;-29
2022/08/20 00:12:06;;;;;;;14.93;7.30;;;;;;;26.53;54.33;99582.25;5130369;27;20030;-28
2022/08/20 00:14:32;;;;;;;14.30;7.40;;;;;;;26.55;54.10;99579.97;5130194;27;20561;-27
2022/08/20 00:16:58;;;;;;;10.98;8.13;;;;;;;26.57;54.48;99578.50;5131679;27;20033;-32
2022/08/20 00:19:23;;;;;;;13.70;7.63;;;;;;;26.36;55.34;99583.22;5130375;27;20034;-28
2022/08/20 00:21:49;;;;;;;11.70;7.88;;;;;;;26.25;55.31;99566.41;5131445;27;20061;-30
2022/08/20 00:24:14;;;;;;;12.00;8.00;;;;;;;26.34;55.49;99572.63;5130481;27;20156;-27
2022/08/20 00:26:40;;;;;;;19.02;8.93;;;;;;;26.37;55.76;99574.66;5131376;27;20414;-28
2022/08/20 00:29:05;;;;;;;14.90;8.50;;;;;;;26.15;55.72;99551.22;5130115;27;20035;-28
2022/08/20 00:31:31;;;;;;;13.75;8.43;;;;;;;26.24;55.22;99556.63;5131426;27;20066;-33
2022/08/20 00:33:56;;;;;;;12.55;8.10;;;;;;;25.97;56.50;99575.19;5131331;27;20520;-29
2022/08/20 00:36:23;;;;;;;12.10;8.18;;;;;;;26.00;56.16;99573.72;5130912;27;20034;-30
2022/08/20 00:38:48;;;;;;;12.80;9.02;;;;;;;25.88;56.75;99568.16;5129813;27;20437;-27
2022/08/20 00:41:20;;;;;;;10.82;8.32;;;;;;;25.80;56.92;99565.16;5131188;27;20027;-30
2022/08/20 00:44:03;;;;;;;12.90;7.90;;;;;;;25.78;57.47;99566.63;5129483;27;20027;-30
2022/08/20 00:46:29;;;;;;;16.42;9.07;;;;;;;25.84;57.05;99565.28;5129392;27;20027;-30
2022/08/20 00:48:57;;;;;;;17.05;9.18;;;;;;;25.71;57.61;99567.16;5129470;27;20426;-29
2022/08/20 00:51:38;;;;;;;13.95;10.30;;;;;;;25.75;56.94;99535.31;5129613;27;20616;-27
2022/08/20 00:54:10;;;;;;;12.27;9.63;;;;;;;25.81;57.33;99565.97;5130527;27;20035;-29
2022/08/20 00:56:36;;;;;;;14.70;10.23;;;;;;;25.82;57.15;99549.22;5130837;27;20076;-29
2022/08/20 00:59:10;;;;;;;17.00;11.10;;;;;;;25.80;57.58;99558.91;5130827;27;20114;-33
2022/08/20 01:01:38;;;;;;;15.32;10.50;;;;;;;25.58;57.95;99540.91;5130838;27;20042;-29
2022/08/20 01:04:04;;;;;;;17.30;11.15;;;;;;;25.66;57.56;99561.88;5129437;27;20023;-28
2022/08/20 01:06:30;;;;;;;14.88;11.50;;;;;;;25.56;57.90;99563.09;5129199;27;20469;-29
2022/08/20 01:08:57;;;;;;;15.43;11.50;;;;;;;25.48;57.43;99550.31;5129144;27;20029;-30
2022/08/20 01:11:32;;;;;;;15.00;12.13;;;;;;;25.57;57.44;99564.69;5129262;27;20058;-28
2022/08/20 01:13:58;;;;;;;16.02;11.77;;;;;;;25.34;58.54;99571.59;5130463;27;20076;-29
2022/08/20 01:16:30;;;;;;;14.18;11.18;;;;;;;25.36;58.20;99561.16;5129138;27;20062;-27
2022/08/20 01:18:57;;;;;;;16.05;11.48;;;;;;;25.37;58.29;99566.25;5129092;27;20122;-29
2022/08/20 01:21:26;;;;;;;14.60;11.63;;;;;;;25.32;57.78;99546.56;5129150;27;20490;-33
2022/08/20 01:24:05;;;;;;;15.13;11.35;;;;;;;25.14;59.10;99560.25;5130468;27;20402;-28
2022/08/20 01:26:38;;;;;;;15.20;10.40;;;;;;;24.96;59.49;99561.47;5128928;27;20582;-28
2022/08/20 01:29:11;;;;;;;15.27;10.88;;;;;;;25.18;58.84;99558.47;5130291;27;20031;-29
2022/08/20 01:31:39;;;;;;;13.75;10.90;;;;;;;25.29;58.56;99556.19;5128807;27;20038;-28
2022/08/20 01:34:08;;;;;;;15.98;10.23;;;;;;;25.19;58.91;99554.63;5128675;27;20141;-28
2022/08/20 01:36:40;;;;;;;15.80;10.80;;;;;;;24.98;59.74;99543.63;5128512;27;20085;-28
2022/08/20 01:39:11;;;;;;;17.80;11.40;;;;;;;25.01;59.77;99558.56;5128806;27;20522;-31
2022/08/20 01:42:06;;;;;;;15.85;10.75;;;;;;;25.08;59.09;99547.94;5128817;27;20034;-28
2022/08/20 01:44:32;;;;;;;15.65;11.30;;;;;;;25.41;57.96;99541.81;5129742;27;20084;-28
2022/08/20 01:47:21;;;;;;;13.25;10.73;;;;;;;25.20;59.17;99547.22;5128719;27;20039;-29
2022/08/20 01:49:53;;;;;;;14.57;10.75;;;;;;;25.16;58.83;99554.47;5129769;27;20059;-30
2022/08/20 01:52:47;;;;;;;13.23;10.13;;;;;;;25.01;59.94;99559.34;5128477;27;20023;-28
2022/08/20 01:55:13;;;;;;;16.20;11.23;;;;;;;24.90;60.15;99557.31;5122256;27;20046;-28
2022/08/20 01:57:39;;;;;;;18.08;11.10;;;;;;;24.71;60.08;99544.06;5128155;27;20030;-28
2022/08/20 02:00:08;;;;;;;15.63;11.07;;;;;;;24.69;60.16;99554.50;5128353;27;20035;-27
2022/08/20 02:02:34;;;;;;;14.95;10.50;;;;;;;24.40;61.10;99524.09;5127974;27;20532;-29
2022/08/20 02:04:59;;;;;;;15.00;11.18;;;;;;;24.78;60.64;99547.88;5128787;27;20031;-28
2022/08/20 02:07:26;;;;;;;17.17;11.40;;;;;;;24.44;61.49;99549.56;5129664;27;20060;-31
2022/08/20 02:09:51;;;;;;;12.60;10.35;;;;;;;24.41;61.44;99546.69;5128084;27;20089;-31
2022/08/20 02:12:17;;;;;;;12.43;10.30;;;;;;;24.40;61.61;99543.16;5129302;27;20034;-30
2022/08/20 02:14:47;;;;;;;14.60;10.65;;;;;;;24.44;61.57;99540.59;5128165;27;20067;-28
2022/08/20 02:17:13;;;;;;;15.13;10.65;;;;;;;24.18;61.64;99521.56;5129871;27;20154;-28
2022/08/20 02:19:47;;;;;;;16.70;11.65;;;;;;;24.19;61.85;99555.84;5127832;27;20031;-31
2022/08/20 02:22:28;;;;;;;14.57;10.35;;;;;;;24.04;61.56;99546.25;5129694;27;20038;-28
2022/08/20 02:24:53;;;;;;;14.57;10.35;;;;;;;23.92;62.40;99568.69;5127922;27;20520;-27
2022/08/20 02:27:22;;;;;;;15.70;11.07;;;;;;;23.88;62.16;99542.41;5127830;27;20027;-32
2022/08/20 02:29:48;;;;;;;14.85;11.18;;;;;;;23.88;62.82;99558.75;5127731;27;20035;-30
2022/08/20 02:32:14;;;;;;;13.77;10.35;;;;;;;23.84;62.80;99542.25;5127450;27;20031;-28
2022/08/20 02:34:40;;;;;;;14.88;10.00;;;;;;;23.91;63.55;99550.75;5128720;27;20030;-28
2022/08/20 02:37:06;;;;;;;14.82;10.48;;;;;;;23.97;62.63;99522.25;5128877;27;20019;-28
2022/08/20 02:39:32;;;;;;;14.23;10.55;;;;;;;23.82;63.11;99525.44;5129221;27;20048;-31
2022/08/20 02:41:58;;;;;;;15.27;10.07;;;;;;;24.04;63.11;99538.88;5128827;27;20023;-29
2022/08/20 02:44:24;;;;;;;12.50;10.23;;;;;;;24.14;62.73;99534.25;5128555;27;20023;-28
2022/08/20 02:46:49;;;;;;;16.08;10.43;;;;;;;24.24;62.37;99542.06;5128449;27;20030;-28
2022/08/20 02:49:18;;;;;;;16.73;11.73;;;;;;;24.26;62.48;99550.72;5128925;27;20154;-28
2022/08/20 02:51:44;;;;;;;15.07;10.68;;;;;;;24.33;62.07;99553.75;5126778;27;20023;-30
2022/08/20 02:54:12;;;;;;;16.15;10.88;;;;;;;24.24;62.27;99548.31;5128808;27;20053;-30
2022/08/20 02:56:38;;;;;;;14.98;10.75;;;;;;;23.60;64.39;99538.06;5127016;27;20031;-30
2022/08/20 02:59:03;;;;;;;14.55;10.25;;;;;;;23.70;63.75;99534.22;5127297;27;20117;-28
2022/08/20 03:01:30;;;;;;;14.07;11.05;;;;;;;23.88;63.97;99545.13;5127189;27;20019;-27
2022/08/20 03:03:57;;;;;;;13.27;10.40;;;;;;;23.71;63.45;99545.91;5126988;27;20035;-28
2022/08/20 03:06:24;;;;;;;17.30;10.85;;;;;;;23.91;63.04;99544.50;5126506;27;20050;-32
2022/08/20 03:08:49;;;;;;;15.85;10.82;;;;;;;24.09;62.85;99550.72;5126764;27;20042;-28
2022/08/20 03:11:15;;;;;;;14.68;11.07;;;;;;;23.96;63.23;99566.91;5128540;27;20035;-28
2022/08/20 03:13:41;;;;;;;15.50;11.25;;;;;;;23.94;62.66;99571.88;5126788;27;20090;-28
2022/08/20 03:16:08;;;;;;;14.02;11.13;;;;;;;23.90;62.43;99561.97;5126727;27;20114;-31
2022/08/20 03:18:37;;;;;;;18.27;11.25;;;;;;;23.92;62.44;99560.50;5126501;27;20506;-28
2022/08/20 03:21:04;;;;;;;20.30;12.10;;;;;;;23.88;62.76;99573.16;5126579;27;20031;-27
2022/08/20 03:23:30;;;;;;;14.10;11.18;;;;;;;23.87;63.11;99571.56;5128429;27;20063;-28
2022/08/20 03:25:57;;;;;;;19.95;11.25;;;;;;;24.19;62.01;99577.66;5126866;27;20034;-29
2022/08/20 03:28:23;;;;;;;14.30;10.70;;;;;;;23.83;62.54;99574.13;5126474;27;20530;-27
2022/08/20 03:30:50;;;;;;;15.45;11.27;;;;;;;23.76;62.42;99571.06;5128117;27;20075;-29
2022/08/20 03:33:16;;;;;;;27.63;11.73;;;;;;;23.74;63.40;99583.38;5127783;27;20558;-28
2022/08/20 03:35:42;;;;;;;17.48;11.55;;;;;;;23.65;63.83;99583.38;5125500;27;20034;-29
2022/08/20 03:38:10;;;;;;;18.65;11.65;;;;;;;23.77;63.46;99585.50;5128236;27;20027;-28
2022/08/20 03:40:36;;;;;;;17.73;10.77;;;;;;;23.38;64.63;99582.50;5126574;28;20030;-30
2022/08/20 03:43:04;;;;;;;18.33;11.57;;;;;;;23.28;65.87;99577.38;5126469;28;20023;-29
2022/08/20 03:45:31;;;;;;;15.02;12.02;;;;;;;23.47;65.20;99567.00;5127545;28;20100;-27
2022/08/20 03:47:57;;;;;;;16.95;11.18;;;;;;;23.58;64.99;99585.75;5126079;27;20037;-28
2022/08/20 03:50:26;;;;;;;17.30;11.65;;;;;;;23.49;65.33;99593.91;5126741;28;20138;-31
2022/08/20 03:52:52;;;;;;;17.65;12.30;;;;;;;23.62;65.46;99586.72;5126867;27;20023;-30
2022/08/20 03:55:20;;;;;;;19.57;13.43;;;;;;;23.39;66.12;99583.31;5128094;28;20034;-29
2022/08/20 03:57:54;;;;;;;15.00;11.65;;;;;;;23.60;65.10;99589.78;5127949;28;20031;-32
2022/08/20 04:00:36;;;;;;;21.17;12.98;;;;;;;23.63;64.74;99589.13;5126255;28;20406;-27
2022/08/20 04:03:03;;;;;;;16.70;12.48;;;;;;;23.27;65.38;99582.00;5126840;28;20463;-28
2022/08/20 04:05:30;;;;;;;17.80;12.00;;;;;;;23.62;63.82;99581.28;5126772;28;20023;-28
2022/08/20 04:07:58;;;;;;;21.80;13.25;;;;;;;23.57;63.07;99576.78;5126168;28;20031;-30
2022/08/20 04:10:24;;;;;;;20.33;12.63;;;;;;;23.37;64.24;99585.53;5125809;28;20047;-31
2022/08/20 04:12:50;;;;;;;20.77;12.32;;;;;;;23.82;62.46;99585.34;5126194;27;20077;-29
2022/08/20 04:15:17;;;;;;;18.35;11.93;;;;;;;23.81;61.55;99586.47;5126630;28;20038;-27
2022/08/20 04:17:47;;;;;;;16.33;11.45;;;;;;;23.80;60.41;99557.63;5126566;28;20031;-28
2022/08/20 04:20:21;;;;;;;17.13;10.73;;;;;;;23.83;60.02;99570.63;5127904;27;20067;-29
2022/08/20 04:22:51;;;;;;;17.48;12.02;;;;;;;23.75;61.10;99585.00;5127689;28;20054;-32
2022/08/20 04:25:17;;;;;;;20.15;11.45;;;;;;;24.14;59.77;99570.44;5127663;28;20031;-27
2022/08/20 04:27:44;;;;;;;22.95;11.30;;;;;;;24.39;59.53;99579.69;5126672;27;20138;-32
2022/08/20 04:30:12;;;;;;;18.67;11.37;;;;;;;24.20;59.54;99565.63;5130365;27;20042;-32
2022/08/20 04:32:37;;;;;;;18.75;11.77;;;;;;;23.89;61.27;99569.34;5129643;27;20288;-27
2022/08/20 04:35:06;;;;;;;19.52;12.18;;;;;;;23.95;61.32;99559.88;5130157;27;20049;-28
2022/08/20 04:37:32;;;;;;;19.95;12.55;;;;;;;24.24;61.51;99566.59;5131136;27;20041;-28
2022/08/20 04:42:47;;;;;;;17.67;11.57;;;;;;;24.28;61.68;99570.28;5131545;27;20045;-28
2022/08/20 04:45:13;;;;;;;17.63;12.15;;;;;;;24.36;61.40;99572.19;5131400;27;20031;-28
2022/08/20 04:47:40;;;;;;;16.90;12.10;;;;;;;24.60;60.71;99549.06;5131263;27;20510;-28
2022/08/20 04:50:08;;;;;;;17.13;12.98;;;;;;;24.43;62.27;99572.47;5131252;27;20488;-28
2022/08/20 04:52:34;;;;;;;14.77;12.55;;;;;;;24.70;60.99;99559.63;5130719;27;20035;-29
2022/08/20 04:55:00;;;;;;;15.68;11.85;;;;;;;24.86;60.04;99562.63;5131164;27;20039;-27
2022/08/20 04:57:26;;;;;;;15.35;12.20;;;;;;;24.99;60.20;99556.16;5131191;27;20042;-28
2022/08/20 04:59:52;;;;;;;17.00;12.38;;;;;;;25.16;59.61;99582.56;5131123;27;20490;-29
2022/08/20 05:02:20;;;;;;;17.38;11.93;;;;;;;25.25;59.17;99597.00;5129654;27;20053;-28
2022/08/20 05:04:46;;;;;;;16.75;11.25;;;;;;;25.40;57.86;99586.66;5129449;27;20027;-30
2022/08/20 05:07:17;;;;;;;14.88;12.23;;;;;;;25.35;58.42;99592.28;5129512;27;20027;-27
2022/08/20 05:09:43;;;;;;;22.33;11.73;;;;;;;25.24;59.21;99587.19;5131018;27;20221;-31
2022/08/20 05:12:08;;;;;;;17.30;12.10;;;;;;;25.14;59.55;99595.72;5130825;27;20478;-28
2022/08/20 05:14:34;;;;;;;14.68;11.18;;;;;;;24.97;58.65;99590.34;5130877;27;20037;-32
2022/08/20 05:17:05;;;;;;;17.75;11.32;;;;;;;25.20;58.61;99594.41;5129467;27;20498;-28
2022/08/20 05:19:32;;;;;;;15.55;11.73;;;;;;;25.45;57.53;99592.69;5129362;27;20057;-28
2022/08/20 05:21:58;;;;;;;14.07;11.55;;;;;;;25.08;59.18;99580.66;5129240;27;20039;-28
2022/08/20 05:24:24;;;;;;;18.50;11.95;;;;;;;25.35;58.07;99586.81;5130508;27;20032;-32
2022/08/20 05:26:49;;;;;;;17.08;11.85;;;;;;;25.36;57.79;99574.78;5129341;27;20031;-28
2022/08/20 05:29:15;;;;;;;15.82;11.38;;;;;;;25.37;58.36;99581.84;5131056;27;20452;-29
2022/08/20 05:31:41;;;;;;;16.08;11.60;;;;;;;25.58;58.29;99587.31;5130332;27;20047;-33
2022/08/20 05:34:10;;;;;;;17.13;11.45;;;;;;;25.59;57.75;99595.19;5128938;27;20143;-28
2022/08/20 05:36:41;;;;;;;14.80;10.90;;;;;;;25.99;56.93;99600.25;5128641;27;20117;-29
2022/08/20 05:39:08;;;;;;;18.25;11.98;;;;;;;25.91;56.34;99582.00;5129683;27;20034;-31
2022/08/20 05:41:33;;;;;;;14.27;10.90;;;;;;;25.82;56.41;99578.50;5128907;27;20026;-28
2022/08/20 05:44:01;;;;;;;13.30;11.77;;;;;;;25.75;57.20;99598.13;5130403;27;20027;-30
2022/08/20 05:46:30;;;;;;;13.38;10.77;;;;;;;25.86;56.76;99595.81;5128765;27;20027;-27
2022/08/20 05:48:56;;;;;;;16.67;11.05;;;;;;;25.85;56.80;99586.03;5128417;27;20115;-29
2022/08/20 05:51:22;;;;;;;15.52;11.43;;;;;;;26.12;55.89;99592.91;5130275;27;20031;-30
2022/08/20 05:53:47;;;;;;;19.13;11.48;;;;;;;26.42;55.57;99592.81;5130391;27;20115;-32
2022/08/20 05:56:13;;;;;;;13.35;10.73;;;;;;;26.51;55.34;99589.97;5128705;27;20407;-28
2022/08/20 05:58:38;;;;;;;13.82;10.77;;;;;;;26.45;55.29;99590.19;5129631;27;20120;-28
2022/08/20 06:01:04;;;;;;;13.00;11.05;;;;;;;26.32;56.20;99591.28;5129972;27;20023;-31
2022/08/20 06:06:14;;;;;;;14.85;11.32;;;;;;;26.45;56.65;99581.19;5129740;27;20068;-28
2022/08/20 06:08:40;;;;;;;16.00;12.27;;;;;;;26.63;55.19;99570.91;5129407;27;20031;-28
2022/08/20 06:11:06;;;;;;;13.65;9.70;;;;;;;27.16;49.64;99585.56;5128280;27;20116;-28
2022/08/20 06:13:33;;;;;;;16.52;11.38;;;;;;;27.22;52.96;99584.19;5110981;27;20027;-30
2022/08/20 06:16:00;;;;;;;15.45;11.85;;;;;;;27.22;52.76;99591.59;5129495;27;20027;-28
2022/08/20 06:18:25;;;;;;;13.63;10.52;;;;;;;27.07;51.74;99571.16;5129264;27;20023;-28
2022/08/20 06:20:51;;;;;;;14.20;11.07;;;;;;;27.34;52.84;99593.53;5129500;27;20092;-28
2022/08/20 06:23:18;;;;;;;16.25;11.15;;;;;;;27.44;52.97;99593.09;5129416;27;20024;-27
2022/08/20 06:25:44;;;;;;;15.50;11.55;;;;;;;27.50;52.58;99599.91;5127922;27;20023;-30
2022/08/20 06:28:09;;;;;;;12.98;10.48;;;;;;;27.63;51.78;99596.03;5127936;27;20027;-29
2022/08/20 06:30:35;;;;;;;13.00;10.77;;;;;;;27.63;51.65;99593.31;5128787;27;20106;-31
2022/08/20 06:33:01;;;;;;;14.35;11.77;;;;;;;27.71;52.03;99590.78;5129518;27;20031;-28
2022/08/20 06:35:26;;;;;;;14.90;11.45;;;;;;;28.06;50.29;99585.56;5129183;27;20015;-29
2022/08/20 06:37:52;;;;;;;14.18;11.10;;;;;;;28.21;49.69;99581.28;5128908;27;20123;-28
2022/08/20 06:40:24;;;;;;;15.43;10.60;;;;;;;28.37;51.45;99589.56;5128866;27;20103;-31
2022/08/20 06:42:51;;;;;;;15.35;10.40;;;;;;;28.58;50.90;99581.91;5128984;27;20510;-28
2022/08/20 06:45:26;;;;;;;90.40;67.03;;;;;;;28.64;50.15;99587.94;5127129;27;20023;-28
2022/08/20 06:47:57;;;;;;;16.55;11.27;;;;;;;28.72;49.67;99592.47;5128861;27;20119;-29
2022/08/20 06:50:28;;;;;;;13.82;10.88;;;;;;;28.82;47.99;99577.44;5128076;27;20904;-28
2022/08/20 06:52:53;;;;;;;14.93;12.63;;;;;;;28.86;49.60;99575.56;5127224;27;20049;-30
2022/08/20 06:55:20;;;;;;;15.52;11.85;;;;;;;28.93;48.96;99556.56;5127300;27;20430;-29
2022/08/20 06:57:47;;;;;;;15.95;11.95;;;;;;;28.92;49.62;99570.63;5127277;27;20490;-29
2022/08/20 07:00:18;;;;;;;15.67;10.83;;;;;;;29.18;49.04;99567.38;5127420;27;20031;-30
2022/08/20 07:02:46;;;;;;;15.85;12.27;;;;;;;28.90;48.97;99554.50;5128357;27;20312;-29
2022/08/20 07:05:12;;;;;;;14.77;11.27;;;;;;;29.38;48.95;99562.69;5127192;27;20034;-30
2022/08/20 07:07:38;;;;;;;14.15;11.27;;;;;;;29.44;48.01;99553.03;5128265;27;20368;-34
2022/08/20 07:10:09;;;;;;;17.83;11.98;;;;;;;29.56;48.35;99535.63;5109653;27;20039;-32
2022/08/20 07:12:35;;;;;;;17.30;12.60;;;;;;;29.71;47.29;99554.06;5127993;27;20058;-34
2022/08/20 07:15:09;;;;;;;15.85;12.60;;;;;;;29.84;47.09;99554.72;5128358;27;20059;-28
2022/08/20 07:17:36;;;;;;;22.02;12.80;;;;;;;30.07;47.26;99563.03;5128313;27;20031;-31
2022/08/20 07:20:06;;;;;;;17.50;10.80;;;;;;;30.35;46.02;99567.53;5126789;27;20042;-30
2022/08/20 07:22:35;;;;;;;16.98;12.52;;;;;;;30.04;47.61;99558.25;5126430;27;20483;-28
2022/08/20 07:25:06;;;;;;;19.15;12.55;;;;;;;30.11;47.65;99561.13;5126854;27;20027;-28
2022/08/20 07:27:32;;;;;;;16.63;13.10;;;;;;;30.06;47.63;99555.94;5126638;27;20530;-32
2022/08/20 07:32:43;;;;;;;19.27;13.05;;;;;;;30.44;45.21;99559.81;5127610;27;20054;-30
2022/08/20 07:35:13;;;;;;;15.38;12.10;;;;;;;30.63;45.13;99559.00;5126568;27;20027;-28
2022/08/20 07:37:41;;;;;;;12.88;10.13;;;;;;;30.70;44.82;99556.34;5128081;27;20031;-31
2022/08/20 07:40:11;;;;;;;17.08;10.05;;;;;;;30.87;46.28;99532.25;5126765;27;20031;-33
2022/08/20 07:42:38;;;;;;;12.60;10.25;;;;;;;30.80;45.64;99544.72;5126476;28;20035;-28
2022/08/20 07:45:09;;;;;;;16.53;10.70;;;;;;;31.09;46.24;99547.97;5128124;27;20023;-29
2022/08/20 07:47:40;;;;;;;15.35;10.02;;;;;;;31.24;45.29;99549.78;5126265;27;20031;-28
2022/08/20 07:50:08;;;;;;;14.95;10.48;;;;;;;31.42;45.45;99538.19;5127796;27;20058;-29
2022/08/20 07:52:34;;;;;;;17.33;10.90;;;;;;;31.37;45.06;99527.53;5128078;27;20111;-27
2022/08/20 07:55:05;;;;;;;13.43;9.02;;;;;;;31.20;45.10;99546.19;5128144;28;20110;-31
2022/08/20 07:57:30;;;;;;;13.40;9.60;;;;;;;31.34;44.19;99529.03;5126657;27;20532;-29
2022/08/20 07:59:57;;;;;;;13.13;9.68;;;;;;;31.38;44.24;99529.09;5127728;27;20114;-29
2022/08/20 08:02:24;;;;;;;14.63;9.55;;;;;;;31.20;43.06;99537.91;5126660;27;20023;-32
2022/08/20 08:04:50;;;;;;;14.85;10.10;;;;;;;31.42;42.48;99513.41;5130761;27;20038;-32
2022/08/20 08:07:16;;;;;;;12.73;9.50;;;;;;;31.65;42.68;99532.66;5132185;27;20027;-29
2022/08/20 08:09:43;;;;;;;12.27;9.23;;;;;;;31.63;43.03;99533.03;5130556;27;20035;-28
2022/08/20 08:12:12;;;;;;;13.82;9.55;;;;;;;31.90;43.65;99516.41;5130346;27;20031;-30
2022/08/20 08:14:39;;;;;;;11.90;8.98;;;;;;;31.64;42.43;99526.31;5131386;27;20035;-30
2022/08/20 08:17:06;;;;;;;20.55;14.10;;;;;;;31.67;44.60;99501.94;5130401;27;20027;-32
2022/08/20 08:19:41;;;;;;;14.07;9.20;;;;;;;32.05;42.66;99500.03;5130347;27;20038;-33
2022/08/20 08:22:12;;;;;;;11.23;9.40;;;;;;;32.41;41.52;99512.22;5130568;27;20023;-31
2022/08/20 08:24:39;;;;;;;18.42;9.95;;;;;;;32.41;41.55;99507.50;5131569;27;20027;-30
2022/08/20 08:27:06;;;;;;;11.65;9.15;;;;;;;32.65;40.96;99505.34;5131463;27;20031;-30
2022/08/20 08:29:33;;;;;;;13.13;9.75;;;;;;;32.73;40.44;99490.44;5131748;27;20080;-32
2022/08/20 08:32:00;;;;;;;11.07;9.27;;;;;;;33.00;40.19;99490.25;5130185;27;20062;-30
2022/08/20 08:34:25;;;;;;;12.48;9.20;;;;;;;33.21;39.10;99478.56;5130012;27;20034;-30
2022/08/20 08:36:51;;;;;;;13.80;8.90;;;;;;;32.76;39.78;99462.06;5131245;27;20039;-31
2022/08/20 08:39:18;;;;;;;12.77;9.63;;;;;;;33.01;38.97;99464.19;5129821;27;20087;-29
2022/08/20 08:41:48;;;;;;;12.13;9.45;;;;;;;33.18;39.43;99455.25;5129270;27;20023;-30
2022/08/20 08:44:26;;;;;;;11.73;9.48;;;;;;;33.19;38.19;99462.34;5129735;27;20030;-33
2022/08/20 08:47:01;;;;;;;13.23;9.20;;;;;;;33.27;38.20;99463.19;5129642;27;20125;-29
2022/08/20 08:49:34;;;;;;;13.90;9.23;;;;;;;33.28;36.98;99459.22;5130892;27;20049;-28
2022/08/20 08:52:19;;;;;;;14.35;9.23;;;;;;;33.69;38.35;99461.00;5129329;27;20027;-29
2022/08/20 08:54:47;;;;;;;10.57;9.10;;;;;;;33.85;36.57;99464.22;5131111;27;20045;-31
2022/08/20 08:57:15;;;;;;;14.38;8.75;;;;;;;33.87;36.44;99441.69;5129500;27;20545;-33
2022/08/20 08:59:43;;;;;;;11.07;9.20;;;;;;;33.80;37.03;99437.75;5129424;27;20034;-30
2022/08/20 09:02:19;;;;;;;13.30;9.13;;;;;;;34.07;36.97;99461.50;5129076;27;20034;-32
2022/08/20 09:04:44;;;;;;;12.25;9.63;;;;;;;34.22;35.17;99454.81;5129033;27;20041;-28
2022/08/20 09:07:13;;;;;;;14.63;9.38;;;;;;;34.53;35.30;99458.78;5130461;27;20122;-29
2022/08/20 09:09:42;;;;;;;11.50;8.25;;;;;;;34.60;33.93;99444.16;5129129;27;20495;-31
2022/08/20 09:12:16;;;;;;;11.48;7.90;;;;;;;34.91;34.93;99458.38;5128966;27;20023;-30
2022/08/20 09:14:42;;;;;;;14.43;9.00;;;;;;;34.79;34.50;99431.88;5128694;27;20050;-31
2022/08/20 09:17:07;;;;;;;11.93;8.55;;;;;;;35.01;33.95;99449.25;5130255;27;20023;-29
2022/08/20 09:19:33;;;;;;;12.70;8.57;;;;;;;35.26;35.03;99446.41;5129100;27;20027;-30
2022/08/20 09:22:05;;;;;;;13.55;8.40;;;;;;;35.41;33.92;99444.38;5130798;27;20035;-29
2022/08/20 09:24:30;;;;;;;11.65;8.43;;;;;;;35.29;32.95;99447.59;5128593;27;20031;-29
2022/08/20 09:26:56;;;;;;;11.85;8.73;;;;;;;35.11;33.20;99431.81;5130187;27;20038;-28
2022/08/20 09:29:21;;;;;;;13.65;9.18;;;;;;;35.06;33.68;99436.97;5130070;27;20419;-31
2022/08/20 09:31:47;;;;;;;13.02;9.35;;;;;;;35.47;32.24;99431.69;5128721;27;20077;-31
2022/08/20 09:34:12;;;;;;;12.57;8.00;;;;;;;35.82;31.42;99435.50;5130341;27;20053;-29
2022/08/20 09:36:38;;;;;;;15.32;8.18;;;;;;;35.71;31.06;99435.53;5130186;27;20026;-28
2022/08/20 09:39:03;;;;;;;12.00;7.43;;;;;;;35.14;31.59;99436.53;5130025;27;20027;-30
2022/08/20 09:41:29;;;;;;;41.90;10.10;;;;;;;35.61;32.67;99426.06;5130233;27;20490;-30
2022/08/20 09:43:55;;;;;;;12.70;7.50;;;;;;;35.91;31.40;99423.94;5128375;27;20027;-31
2022/08/20 09:46:20;;;;;;;12.60;7.40;;;;;;;36.09;30.45;99421.03;5129464;27;20276;-29
2022/08/20 09:48:46;;;;;;;12.23;7.07;;;;;;;36.08;29.64;99420.22;5129882;27;20051;-31
2022/08/20 09:51:11;;;;;;;13.13;6.30;;;;;;;36.16;29.87;99405.13;5129710;27;20045;-30
2022/08/20 09:53:37;;;;;;;11.30;6.50;;;;;;;36.04;28.97;99419.47;5129947;27;20524;-32
2022/08/20 09:56:02;;;;;;;19.95;7.35;;;;;;;36.21;30.53;99401.16;5129659;27;20023;-30
2022/08/20 09:58:51;;;;;;;8.50;6.05;;;;;;;36.65;28.67;99407.88;5129430;27;20502;-28
2022/08/20 10:01:18;;;;;;;8.30;6.65;;;;;;;36.09;28.60;99413.50;5129884;27;20438;-30
2022/08/20 10:03:47;;;;;;;10.77;6.30;;;;;;;35.93;29.22;99407.66;5128385;27;20023;-33
2022/08/20 10:06:13;;;;;;;9.20;6.22;;;;;;;36.49;29.21;99399.28;5129498;27;20114;-31
2022/08/20 10:08:39;;;;;;;10.27;6.10;;;;;;;37.03;27.53;99399.56;5128030;27;20507;-29
2022/08/20 10:11:05;;;;;;;9.05;6.00;;;;;;;36.83;27.30;99395.81;5129464;27;20126;-31
2022/08/20 10:13:30;;;;;;;9.73;5.75;;;;;;;36.60;27.08;99391.66;5129433;27;20030;-29
2022/08/20 10:15:56;;;;;;;28.40;7.10;;;;;;;37.01;27.83;99382.50;5129371;27;20015;-29
2022/08/20 10:18:21;;;;;;;9.43;6.25;;;;;;;36.86;26.28;99376.34;5127879;27;20105;-30
2022/08/20 10:20:47;;;;;;;12.45;6.00;;;;;;;36.94;25.88;99374.25;5129617;27;20027;-33
2022/08/20 10:23:12;;;;;;;13.48;5.80;;;;;;;37.10;26.35;99371.66;5128997;27;20030;-29
2022/08/20 10:25:38;;;;;;;9.27;6.20;;;;;;;37.50;25.65;99382.31;5128586;27;20027;-32
2022/08/20 10:28:04;;;;;;;10.95;6.18;;;;;;;37.35;26.63;99371.38;5129342;27;20152;-28
2022/08/20 10:30:29;;;;;;;11.95;6.47;;;;;;;37.05;26.48;99369.34;5129175;27;20490;-30
2022/08/20 10:32:55;;;;;;;7.85;5.75;;;;;;;36.99;26.87;99371.00;5127811;27;20122;-33
2022/08/20 10:35:20;;;;;;;10.02;6.47;;;;;;;37.74;26.13;99367.25;5129225;27;20379;-30
2022/08/20 10:37:46;;;;;;;9.02;6.18;;;;;;;38.14;26.92;99364.63;5129148;27;20410;-29
2022/08/20 10:40:14;;;;;;;11.32;7.38;;;;;;;38.02;25.17;99350.50;5129049;27;20094;-29
2022/08/20 10:42:43;;;;;;;9.77;5.82;;;;;;;37.66;25.78;99362.22;5127168;27;20046;-30
2022/08/20 10:45:10;;;;;;;9.63;6.60;;;;;;;37.86;26.41;99360.28;5128769;27;20035;-32
2022/08/20 10:47:36;;;;;;;8.65;6.38;;;;;;;38.02;25.46;99353.31;5126900;27;20890;-32
2022/08/20 10:50:05;;;;;;;8.65;6.45;;;;;;;37.46;25.54;99331.50;5126758;27;20142;-30
2022/08/20 10:52:31;;;;;;;10.45;6.65;;;;;;;37.66;25.60;99339.94;5126700;27;20909;-30
2022/08/20 10:54:56;;;;;;;9.77;6.43;;;;;;;37.80;25.75;99328.59;5128167;27;20058;-34
2022/08/20 10:57:28;;;;;;;11.83;6.37;;;;;;;38.10;24.79;99338.06;5128948;27;20058;-29
2022/08/20 10:59:56;;;;;;;12.40;7.72;;;;;;;38.12;24.39;99316.94;5127100;27;21034;-29
2022/08/20 11:02:22;;;;;;;8.85;5.95;;;;;;;38.22;24.23;99322.75;5128328;27;20106;-29
2022/08/20 11:04:48;;;;;;;9.52;6.30;;;;;;;38.22;24.74;99311.63;5126836;27;20034;-31
2022/08/20 11:07:24;;;;;;;8.90;6.23;;;;;;;37.78;24.88;99337.38;5126866;27;20029;-28
2022/08/20 11:09:50;;;;;;;8.23;6.05;;;;;;;37.75;24.73;99326.31;5128263;27;20031;-29
2022/08/20 11:12:18;;;;;;;7.73;5.77;;;;;;;38.35;24.41;99323.69;5126826;27;20063;-34
2022/08/20 11:14:44;;;;;;;10.68;6.00;;;;;;;38.28;25.46;99310.69;5126713;27;20321;-29
2022/08/20 11:17:10;;;;;;;8.85;6.28;;;;;;;38.71;23.25;99318.25;5128129;27;20027;-30
2022/08/20 11:19:43;;;;;;;28.88;8.10;;;;;;;38.82;23.44;99318.03;5126615;27;20030;-29
2022/08/20 11:22:10;;;;;;;9.52;5.82;;;;;;;38.37;23.57;99312.91;5126392;27;20115;-28
2022/08/20 11:24:36;;;;;;;10.70;5.55;;;;;;;38.44;22.82;99298.88;5126477;27;20034;-34
2022/08/20 11:27:04;;;;;;;10.95;5.63;;;;;;;39.11;23.21;99307.09;5126879;27;20066;-32
2022/08/20 11:29:30;;;;;;;7.00;5.32;;;;;;;39.30;23.36;99290.75;5126683;27;20107;-33
2022/08/20 11:31:57;;;;;;;7.68;5.60;;;;;;;39.17;22.11;99297.00;5126363;27;20674;-29
2022/08/20 11:34:22;;;;;;;7.57;6.07;;;;;;;39.31;22.11;99292.31;5127834;27;20027;-32